sensor_id;sensor_type;location;lat;lon;timestamp;temperature;humidity
70366;DHT22;57787;48.216;12.396;2022-07-21T00:00:15;22.70;61.10
70366;DHT22;57787;48.216;12.396;2022-07-21T00:02:42;22.70;61.70
70366;DHT22;57787;48.216;12.396;2022-07-21T00:05:09;22.60;62.80
70366;DHT22;57787;48.216;12.396;2022-07-21T00:07:36;22.50;62.70
70366;DHT22;57787;48.216;12.396;2022-07-21T00:10:03;22.40;62.60
70366;DHT22;57787;48.216;12.396;2022-07-21T00:12:30;22.30;62.60
70366;DHT22;57787;48.216;12.396;2022-07-21T00:14:57;22.30;63.00
70366;DHT22;57787;48.216;12.396;2022-07-21T00:17:23;22.20;63.60
70366;DHT22;57787;48.216;12.396;2022-07-21T00:19:50;22.10;64.40
70366;DHT22;57787;48.216;12.396;2022-07-21T00:22:17;22.10;63.90
70366;DHT22;57787;48.216;12.396;2022-07-21T00:24:44;22.10;64.10
70366;DHT22;57787;48.216;12.396;2022-07-21T00:27:11;22.00;65.40
70366;DHT22;57787;48.216;12.396;2022-07-21T00:29:38;22.00;64.70
70366;DHT22;57787;48.216;12.396;2022-07-21T00:32:05;22.00;64.10
70366;DHT22;57787;48.216;12.396;2022-07-21T00:34:32;22.00;64.40
70366;DHT22;57787;48.216;12.396;2022-07-21T00:36:59;22.00;64.40
70366;DHT22;57787;48.216;12.396;2022-07-21T00:39:26;22.00;64.40
70366;DHT22;57787;48.216;12.396;2022-07-21T00:41:54;22.00;65.50
70366;DHT22;57787;48.216;12.396;2022-07-21T00:44:25;21.90;65.00
70366;DHT22;57787;48.216;12.396;2022-07-21T00:46:52;21.90;65.60
70366;DHT22;57787;48.216;12.396;2022-07-21T00:49:19;21.80;65.60
70366;DHT22;57787;48.216;12.396;2022-07-21T00:51:49;21.80;65.50
70366;DHT22;57787;48.216;12.396;2022-07-21T00:54:17;21.80;64.60
70366;DHT22;57787;48.216;12.396;2022-07-21T00:56:44;21.70;65.90
70366;DHT22;57787;48.216;12.396;2022-07-21T00:59:11;21.70;66.10
70366;DHT22;57787;48.216;12.396;2022-07-21T01:01:38;21.60;66.00
70366;DHT22;57787;48.216;12.396;2022-07-21T01:04:06;21.60;66.40
70366;DHT22;57787;48.216;12.396;2022-07-21T01:06:34;21.60;66.60
70366;DHT22;57787;48.216;12.396;2022-07-21T01:09:01;21.50;66.90
70366;DHT22;57787;48.216;12.396;2022-07-21T01:11:36;21.50;66.80
70366;DHT22;57787;48.216;12.396;2022-07-21T01:14:04;21.50;66.20
70366;DHT22;57787;48.216;12.396;2022-07-21T01:16:31;21.50;65.90
70366;DHT22;57787;48.216;12.396;2022-07-21T01:18:58;21.50;65.40
70366;DHT22;57787;48.216;12.396;2022-07-21T01:21:27;21.50;65.10
70366;DHT22;57787;48.216;12.396;2022-07-21T01:23:54;21.40;65.40
70366;DHT22;57787;48.216;12.396;2022-07-21T01:26:21;21.40;65.80
70366;DHT22;57787;48.216;12.396;2022-07-21T01:28:48;21.40;66.50
70366;DHT22;57787;48.216;12.396;2022-07-21T01:31:15;21.30;67.20
70366;DHT22;57787;48.216;12.396;2022-07-21T01:33:42;21.30;67.70
70366;DHT22;57787;48.216;12.396;2022-07-21T01:36:09;21.30;67.50
70366;DHT22;57787;48.216;12.396;2022-07-21T01:38:36;21.30;67.40
70366;DHT22;57787;48.216;12.396;2022-07-21T01:41:22;21.30;67.80
70366;DHT22;57787;48.216;12.396;2022-07-21T01:43:59;21.20;67.70
70366;DHT22;57787;48.216;12.396;2022-07-21T01:46:27;21.20;67.90
70366;DHT22;57787;48.216;12.396;2022-07-21T01:48:55;21.20;69.10
70366;DHT22;57787;48.216;12.396;2022-07-21T01:51:22;21.10;69.20
70366;DHT22;57787;48.216;12.396;2022-07-21T01:53:49;21.10;69.30
70366;DHT22;57787;48.216;12.396;2022-07-21T01:56:18;21.10;69.30
70366;DHT22;57787;48.216;12.396;2022-07-21T01:58:45;21.10;68.70
70366;DHT22;57787;48.216;12.396;2022-07-21T02:01:12;21.00;68.70
70366;DHT22;57787;48.216;12.396;2022-07-21T02:03:40;21.00;70.30
70366;DHT22;57787;48.216;12.396;2022-07-21T02:06:07;21.00;69.20
70366;DHT22;57787;48.216;12.396;2022-07-21T02:08:35;20.90;69.30
70366;DHT22;57787;48.216;12.396;2022-07-21T02:11:03;20.90;69.20
70366;DHT22;57787;48.216;12.396;2022-07-21T02:13:30;20.90;69.30
70366;DHT22;57787;48.216;12.396;2022-07-21T02:15:57;20.90;69.50
70366;DHT22;57787;48.216;12.396;2022-07-21T02:18:24;20.90;69.80
70366;DHT22;57787;48.216;12.396;2022-07-21T02:20:51;20.80;70.20
70366;DHT22;57787;48.216;12.396;2022-07-21T02:23:19;20.80;69.60
70366;DHT22;57787;48.216;12.396;2022-07-21T02:25:46;20.80;70.10
70366;DHT22;57787;48.216;12.396;2022-07-21T02:28:13;20.70;70.90
70366;DHT22;57787;48.216;12.396;2022-07-21T02:30:40;20.70;71.10
70366;DHT22;57787;48.216;12.396;2022-07-21T02:33:07;20.70;70.60
70366;DHT22;57787;48.216;12.396;2022-07-21T02:35:34;20.60;70.90
70366;DHT22;57787;48.216;12.396;2022-07-21T02:38:01;20.60;70.30
70366;DHT22;57787;48.216;12.396;2022-07-21T02:40:28;20.60;70.20
70366;DHT22;57787;48.216;12.396;2022-07-21T02:42:55;20.60;69.90
70366;DHT22;57787;48.216;12.396;2022-07-21T02:45:22;20.50;70.50
70366;DHT22;57787;48.216;12.396;2022-07-21T02:47:50;20.60;70.90
70366;DHT22;57787;48.216;12.396;2022-07-21T02:50:17;20.50;70.80
70366;DHT22;57787;48.216;12.396;2022-07-21T02:52:46;20.50;70.50
70366;DHT22;57787;48.216;12.396;2022-07-21T02:55:13;20.50;70.30
70366;DHT22;57787;48.216;12.396;2022-07-21T02:57:40;20.50;71.20
70366;DHT22;57787;48.216;12.396;2022-07-21T03:00:07;20.50;71.50
70366;DHT22;57787;48.216;12.396;2022-07-21T03:02:34;20.40;71.50
70366;DHT22;57787;48.216;12.396;2022-07-21T03:05:02;20.40;70.50
70366;DHT22;57787;48.216;12.396;2022-07-21T03:07:29;20.40;71.30
70366;DHT22;57787;48.216;12.396;2022-07-21T03:09:56;20.30;70.80
70366;DHT22;57787;48.216;12.396;2022-07-21T03:12:23;20.30;71.50
70366;DHT22;57787;48.216;12.396;2022-07-21T03:14:50;20.20;71.50
70366;DHT22;57787;48.216;12.396;2022-07-21T03:17:19;20.20;72.00
70366;DHT22;57787;48.216;12.396;2022-07-21T03:19:46;20.10;71.70
70366;DHT22;57787;48.216;12.396;2022-07-21T03:22:13;20.10;72.00
70366;DHT22;57787;48.216;12.396;2022-07-21T03:24:40;20.00;72.20
70366;DHT22;57787;48.216;12.396;2022-07-21T03:27:07;20.00;72.40
70366;DHT22;57787;48.216;12.396;2022-07-21T03:29:34;19.90;72.50
70366;DHT22;57787;48.216;12.396;2022-07-21T03:32:01;19.90;71.90
70366;DHT22;57787;48.216;12.396;2022-07-21T03:34:30;19.80;72.80
70366;DHT22;57787;48.216;12.396;2022-07-21T03:36:58;19.80;73.20
70366;DHT22;57787;48.216;12.396;2022-07-21T03:39:25;19.80;74.20
70366;DHT22;57787;48.216;12.396;2022-07-21T03:41:52;19.80;73.80
70366;DHT22;57787;48.216;12.396;2022-07-21T03:44:19;19.90;73.10
70366;DHT22;57787;48.216;12.396;2022-07-21T03:46:46;19.80;73.30
70366;DHT22;57787;48.216;12.396;2022-07-21T03:49:13;19.90;73.50
70366;DHT22;57787;48.216;12.396;2022-07-21T03:51:40;19.90;73.50
70366;DHT22;57787;48.216;12.396;2022-07-21T03:54:07;19.90;73.60
70366;DHT22;57787;48.216;12.396;2022-07-21T03:56:34;19.90;74.60
70366;DHT22;57787;48.216;12.396;2022-07-21T03:59:01;19.90;73.60
70366;DHT22;57787;48.216;12.396;2022-07-21T04:01:28;19.90;73.60
70366;DHT22;57787;48.216;12.396;2022-07-21T04:03:55;20.00;74.20
70366;DHT22;57787;48.216;12.396;2022-07-21T04:06:22;20.00;73.80
70366;DHT22;57787;48.216;12.396;2022-07-21T04:08:48;20.00;73.70
70366;DHT22;57787;48.216;12.396;2022-07-21T04:11:16;20.10;73.40
70366;DHT22;57787;48.216;12.396;2022-07-21T04:13:43;20.10;74.00
70366;DHT22;57787;48.216;12.396;2022-07-21T04:16:10;20.10;73.70
70366;DHT22;57787;48.216;12.396;2022-07-21T04:18:37;20.20;74.10
70366;DHT22;57787;48.216;12.396;2022-07-21T04:21:04;20.20;74.50
70366;DHT22;57787;48.216;12.396;2022-07-21T04:23:31;20.30;74.10
70366;DHT22;57787;48.216;12.396;2022-07-21T04:25:59;20.30;73.90
70366;DHT22;57787;48.216;12.396;2022-07-21T04:28:26;20.40;73.70
70366;DHT22;57787;48.216;12.396;2022-07-21T04:30:53;20.50;74.00
70366;DHT22;57787;48.216;12.396;2022-07-21T04:33:20;20.60;74.10
70366;DHT22;57787;48.216;12.396;2022-07-21T04:35:47;20.60;73.10
70366;DHT22;57787;48.216;12.396;2022-07-21T04:38:14;20.80;74.80
70366;DHT22;57787;48.216;12.396;2022-07-21T04:40:41;20.80;74.00
70366;DHT22;57787;48.216;12.396;2022-07-21T04:43:08;20.90;73.70
70366;DHT22;57787;48.216;12.396;2022-07-21T04:45:34;21.00;73.00
70366;DHT22;57787;48.216;12.396;2022-07-21T04:48:02;21.10;74.20
70366;DHT22;57787;48.216;12.396;2022-07-21T04:50:28;21.20;73.80
70366;DHT22;57787;48.216;12.396;2022-07-21T04:52:55;21.30;73.80
70366;DHT22;57787;48.216;12.396;2022-07-21T04:55:22;21.40;73.50
70366;DHT22;57787;48.216;12.396;2022-07-21T04:57:49;21.50;73.30
70366;DHT22;57787;48.216;12.396;2022-07-21T05:00:18;21.70;73.00
70366;DHT22;57787;48.216;12.396;2022-07-21T05:02:46;21.80;73.40
70366;DHT22;57787;48.216;12.396;2022-07-21T05:05:13;21.80;73.40
70366;DHT22;57787;48.216;12.396;2022-07-21T05:07:41;21.90;73.10
70366;DHT22;57787;48.216;12.396;2022-07-21T05:10:09;21.90;72.80
70366;DHT22;57787;48.216;12.396;2022-07-21T05:12:36;22.10;73.10
70366;DHT22;57787;48.216;12.396;2022-07-21T05:15:04;22.20;72.70
70366;DHT22;57787;48.216;12.396;2022-07-21T05:17:32;22.20;71.60
70366;DHT22;57787;48.216;12.396;2022-07-21T05:19:59;22.30;71.40
70366;DHT22;57787;48.216;12.396;2022-07-21T05:22:26;22.40;70.50
70366;DHT22;57787;48.216;12.396;2022-07-21T05:24:53;22.50;69.60
70366;DHT22;57787;48.216;12.396;2022-07-21T05:27:23;22.60;69.40
70366;DHT22;57787;48.216;12.396;2022-07-21T05:29:50;22.80;68.70
70366;DHT22;57787;48.216;12.396;2022-07-21T05:32:17;22.90;68.40
70366;DHT22;57787;48.216;12.396;2022-07-21T05:34:50;23.00;68.40
70366;DHT22;57787;48.216;12.396;2022-07-21T05:37:17;23.20;68.20
70366;DHT22;57787;48.216;12.396;2022-07-21T05:39:44;23.30;68.10
70366;DHT22;57787;48.216;12.396;2022-07-21T05:42:10;23.50;67.90
70366;DHT22;57787;48.216;12.396;2022-07-21T05:44:37;23.60;67.80
70366;DHT22;57787;48.216;12.396;2022-07-21T05:47:04;23.80;66.80
70366;DHT22;57787;48.216;12.396;2022-07-21T05:49:31;23.90;66.60
70366;DHT22;57787;48.216;12.396;2022-07-21T05:51:58;24.00;66.20
70366;DHT22;57787;48.216;12.396;2022-07-21T05:54:25;24.10;66.60
70366;DHT22;57787;48.216;12.396;2022-07-21T05:56:51;24.10;65.60
70366;DHT22;57787;48.216;12.396;2022-07-21T05:59:18;24.20;66.00
70366;DHT22;57787;48.216;12.396;2022-07-21T06:01:45;24.10;67.30
70366;DHT22;57787;48.216;12.396;2022-07-21T06:04:12;24.20;66.60
70366;DHT22;57787;48.216;12.396;2022-07-21T06:06:39;24.30;66.90
70366;DHT22;57787;48.216;12.396;2022-07-21T06:09:06;24.30;66.90
70366;DHT22;57787;48.216;12.396;2022-07-21T06:11:33;24.20;67.70
70366;DHT22;57787;48.216;12.396;2022-07-21T06:14:03;24.30;66.30
70366;DHT22;57787;48.216;12.396;2022-07-21T06:16:30;24.30;67.70
70366;DHT22;57787;48.216;12.396;2022-07-21T06:18:59;24.30;67.40
70366;DHT22;57787;48.216;12.396;2022-07-21T06:21:28;24.30;67.00
70366;DHT22;57787;48.216;12.396;2022-07-21T06:23:55;24.30;67.70
70366;DHT22;57787;48.216;12.396;2022-07-21T06:26:24;24.40;68.30
70366;DHT22;57787;48.216;12.396;2022-07-21T06:28:51;24.50;67.40
70366;DHT22;57787;48.216;12.396;2022-07-21T06:31:18;24.60;64.90
70366;DHT22;57787;48.216;12.396;2022-07-21T06:33:45;24.70;65.60
70366;DHT22;57787;48.216;12.396;2022-07-21T06:36:12;24.70;67.50
70366;DHT22;57787;48.216;12.396;2022-07-21T06:38:39;24.80;64.90
70366;DHT22;57787;48.216;12.396;2022-07-21T06:41:06;24.80;64.30
70366;DHT22;57787;48.216;12.396;2022-07-21T06:43:33;24.70;65.10
70366;DHT22;57787;48.216;12.396;2022-07-21T06:46:00;24.70;64.80
70366;DHT22;57787;48.216;12.396;2022-07-21T06:48:27;24.60;64.20
70366;DHT22;57787;48.216;12.396;2022-07-21T06:50:55;24.60;64.00
70366;DHT22;57787;48.216;12.396;2022-07-21T06:53:22;24.60;64.30
70366;DHT22;57787;48.216;12.396;2022-07-21T06:55:50;24.50;64.10
70366;DHT22;57787;48.216;12.396;2022-07-21T06:58:28;24.50;65.20
70366;DHT22;57787;48.216;12.396;2022-07-21T07:00:57;24.40;64.80
70366;DHT22;57787;48.216;12.396;2022-07-21T07:03:25;24.50;65.50
70366;DHT22;57787;48.216;12.396;2022-07-21T07:05:53;24.50;65.50
70366;DHT22;57787;48.216;12.396;2022-07-21T07:08:20;24.50;65.20
70366;DHT22;57787;48.216;12.396;2022-07-21T07:10:47;24.50;65.50
70366;DHT22;57787;48.216;12.396;2022-07-21T07:13:18;24.60;66.40
70366;DHT22;57787;48.216;12.396;2022-07-21T07:16:05;24.80;66.10
70366;DHT22;57787;48.216;12.396;2022-07-21T07:18:32;24.80;65.10
70366;DHT22;57787;48.216;12.396;2022-07-21T07:20:59;25.00;65.20
70366;DHT22;57787;48.216;12.396;2022-07-21T07:23:32;25.10;65.00
70366;DHT22;57787;48.216;12.396;2022-07-21T07:25:59;25.20;64.00
70366;DHT22;57787;48.216;12.396;2022-07-21T07:28:26;25.30;64.50
70366;DHT22;57787;48.216;12.396;2022-07-21T07:30:53;25.20;63.40
70366;DHT22;57787;48.216;12.396;2022-07-21T07:33:20;25.10;62.90
70366;DHT22;57787;48.216;12.396;2022-07-21T07:35:51;24.90;63.90
70366;DHT22;57787;48.216;12.396;2022-07-21T07:38:19;24.90;64.20
70366;DHT22;57787;48.216;12.396;2022-07-21T07:40:46;24.80;63.90
70366;DHT22;57787;48.216;12.396;2022-07-21T07:43:13;24.90;64.10
70366;DHT22;57787;48.216;12.396;2022-07-21T07:45:40;24.80;64.00
70366;DHT22;57787;48.216;12.396;2022-07-21T07:48:07;24.70;64.20
70366;DHT22;57787;48.216;12.396;2022-07-21T07:50:34;24.80;64.40
70366;DHT22;57787;48.216;12.396;2022-07-21T07:53:00;24.70;64.40
70366;DHT22;57787;48.216;12.396;2022-07-21T07:55:27;24.80;64.40
70366;DHT22;57787;48.216;12.396;2022-07-21T07:57:55;24.80;66.00
70366;DHT22;57787;48.216;12.396;2022-07-21T08:00:22;24.90;64.40
70366;DHT22;57787;48.216;12.396;2022-07-21T08:03:09;25.00;63.90
70366;DHT22;57787;48.216;12.396;2022-07-21T08:05:36;25.10;63.60
70366;DHT22;57787;48.216;12.396;2022-07-21T08:08:03;25.30;62.60
70366;DHT22;57787;48.216;12.396;2022-07-21T08:10:31;25.30;61.50
70366;DHT22;57787;48.216;12.396;2022-07-21T08:13:13;25.50;62.90
70366;DHT22;57787;48.216;12.396;2022-07-21T08:15:41;25.60;61.30
70366;DHT22;57787;48.216;12.396;2022-07-21T08:18:08;25.70;61.10
70366;DHT22;57787;48.216;12.396;2022-07-21T08:20:35;25.70;61.30
70366;DHT22;57787;48.216;12.396;2022-07-21T08:23:03;25.90;61.40
70366;DHT22;57787;48.216;12.396;2022-07-21T08:25:30;26.00;60.50
70366;DHT22;57787;48.216;12.396;2022-07-21T08:27:59;26.10;61.30
70366;DHT22;57787;48.216;12.396;2022-07-21T08:30:27;26.20;60.50
70366;DHT22;57787;48.216;12.396;2022-07-21T08:32:57;26.30;59.50
70366;DHT22;57787;48.216;12.396;2022-07-21T08:35:26;26.40;59.00
70366;DHT22;57787;48.216;12.396;2022-07-21T08:37:55;26.50;58.30
70366;DHT22;57787;48.216;12.396;2022-07-21T08:40:22;26.50;59.10
70366;DHT22;57787;48.216;12.396;2022-07-21T08:42:50;26.60;60.10
70366;DHT22;57787;48.216;12.396;2022-07-21T08:45:17;26.70;59.30
70366;DHT22;57787;48.216;12.396;2022-07-21T08:47:44;26.90;56.00
70366;DHT22;57787;48.216;12.396;2022-07-21T08:50:12;27.00;57.30
70366;DHT22;57787;48.216;12.396;2022-07-21T08:52:38;27.00;55.20
70366;DHT22;57787;48.216;12.396;2022-07-21T08:55:06;27.00;55.60
70366;DHT22;57787;48.216;12.396;2022-07-21T08:57:37;27.00;56.20
70366;DHT22;57787;48.216;12.396;2022-07-21T09:00:04;27.00;56.20
70366;DHT22;57787;48.216;12.396;2022-07-21T09:02:33;27.00;55.60
70366;DHT22;57787;48.216;12.396;2022-07-21T09:05:08;27.00;55.40
70366;DHT22;57787;48.216;12.396;2022-07-21T09:07:54;27.00;55.70
70366;DHT22;57787;48.216;12.396;2022-07-21T09:10:29;27.00;57.00
70366;DHT22;57787;48.216;12.396;2022-07-21T09:13:02;27.00;55.00
70366;DHT22;57787;48.216;12.396;2022-07-21T09:15:30;27.00;57.10
70366;DHT22;57787;48.216;12.396;2022-07-21T09:18:06;26.90;55.40
70366;DHT22;57787;48.216;12.396;2022-07-21T09:20:38;27.00;55.20
70366;DHT22;57787;48.216;12.396;2022-07-21T09:23:11;27.10;56.20
70366;DHT22;57787;48.216;12.396;2022-07-21T09:25:43;27.20;54.80
70366;DHT22;57787;48.216;12.396;2022-07-21T09:28:15;27.20;55.40
70366;DHT22;57787;48.216;12.396;2022-07-21T09:38:40;27.40;54.10
70366;DHT22;57787;48.216;12.396;2022-07-21T09:41:10;27.60;55.00
70366;DHT22;57787;48.216;12.396;2022-07-21T09:43:41;27.90;55.20
70366;DHT22;57787;48.216;12.396;2022-07-21T09:46:09;28.10;52.10
70366;DHT22;57787;48.216;12.396;2022-07-21T09:48:38;28.30;53.80
70366;DHT22;57787;48.216;12.396;2022-07-21T09:51:21;28.30;53.80
70366;DHT22;57787;48.216;12.396;2022-07-21T09:53:52;28.30;53.60
70366;DHT22;57787;48.216;12.396;2022-07-21T09:56:22;28.40;53.40
70366;DHT22;57787;48.216;12.396;2022-07-21T09:58:50;28.40;51.30
70366;DHT22;57787;48.216;12.396;2022-07-21T10:01:18;28.40;53.40
70366;DHT22;57787;48.216;12.396;2022-07-21T10:03:46;28.50;52.00
70366;DHT22;57787;48.216;12.396;2022-07-21T10:06:14;28.50;52.80
70366;DHT22;57787;48.216;12.396;2022-07-21T10:08:41;28.50;54.10
70366;DHT22;57787;48.216;12.396;2022-07-21T10:11:09;28.60;53.10
70366;DHT22;57787;48.216;12.396;2022-07-21T10:13:43;28.80;51.60
70366;DHT22;57787;48.216;12.396;2022-07-21T10:16:11;28.80;51.40
70366;DHT22;57787;48.216;12.396;2022-07-21T10:18:50;28.80;51.90
70366;DHT22;57787;48.216;12.396;2022-07-21T10:21:29;28.80;50.00
70366;DHT22;57787;48.216;12.396;2022-07-21T10:23:56;28.70;52.00
70366;DHT22;57787;48.216;12.396;2022-07-21T10:26:24;28.60;51.50
70366;DHT22;57787;48.216;12.396;2022-07-21T10:28:51;28.50;51.60
70366;DHT22;57787;48.216;12.396;2022-07-21T10:31:22;28.40;51.60
70366;DHT22;57787;48.216;12.396;2022-07-21T10:41:40;28.80;51.70
70366;DHT22;57787;48.216;12.396;2022-07-21T10:49:42;28.80;50.60
70366;DHT22;57787;48.216;12.396;2022-07-21T11:00:25;28.80;51.00
70366;DHT22;57787;48.216;12.396;2022-07-21T11:02:58;28.80;51.00
70366;DHT22;57787;48.216;12.396;2022-07-21T11:05:27;28.60;50.60
70366;DHT22;57787;48.216;12.396;2022-07-21T11:10:43;28.70;51.40
70366;DHT22;57787;48.216;12.396;2022-07-21T11:13:11;28.60;52.10
70366;DHT22;57787;48.216;12.396;2022-07-21T11:18:18;28.40;53.70
70366;DHT22;57787;48.216;12.396;2022-07-21T11:23:35;28.40;53.60
70366;DHT22;57787;48.216;12.396;2022-07-21T11:26:02;28.60;52.40
70366;DHT22;57787;48.216;12.396;2022-07-21T11:28:29;28.80;52.20
70366;DHT22;57787;48.216;12.396;2022-07-21T11:33:39;28.90;51.70
70366;DHT22;57787;48.216;12.396;2022-07-21T11:36:06;28.80;51.20
70366;DHT22;57787;48.216;12.396;2022-07-21T11:38:55;28.60;52.90
70366;DHT22;57787;48.216;12.396;2022-07-21T11:41:22;28.60;54.20
70366;DHT22;57787;48.216;12.396;2022-07-21T11:43:50;28.60;52.90
70366;DHT22;57787;48.216;12.396;2022-07-21T11:46:17;28.70;51.50
70366;DHT22;57787;48.216;12.396;2022-07-21T11:48:44;28.70;50.00
70366;DHT22;57787;48.216;12.396;2022-07-21T11:51:12;28.70;50.10
70366;DHT22;57787;48.216;12.396;2022-07-21T11:53:45;28.70;51.20
70366;DHT22;57787;48.216;12.396;2022-07-21T11:56:15;28.70;51.20
70366;DHT22;57787;48.216;12.396;2022-07-21T11:58:43;28.50;50.90
70366;DHT22;57787;48.216;12.396;2022-07-21T12:01:11;28.30;51.00
70366;DHT22;57787;48.216;12.396;2022-07-21T12:03:51;28.30;51.90
70366;DHT22;57787;48.216;12.396;2022-07-21T12:06:19;28.30;52.70
70366;DHT22;57787;48.216;12.396;2022-07-21T12:08:46;28.20;52.70
70366;DHT22;57787;48.216;12.396;2022-07-21T12:11:13;28.10;52.70
70366;DHT22;57787;48.216;12.396;2022-07-21T12:13:57;28.10;54.50
70366;DHT22;57787;48.216;12.396;2022-07-21T12:16:24;28.20;51.90
70366;DHT22;57787;48.216;12.396;2022-07-21T12:19:11;28.30;53.10
70366;DHT22;57787;48.216;12.396;2022-07-21T12:21:45;28.30;53.40
70366;DHT22;57787;48.216;12.396;2022-07-21T12:24:12;28.40;52.00
70366;DHT22;57787;48.216;12.396;2022-07-21T12:26:39;28.50;53.80
70366;DHT22;57787;48.216;12.396;2022-07-21T12:29:06;28.40;52.20
70366;DHT22;57787;48.216;12.396;2022-07-21T12:31:36;28.40;52.30
70366;DHT22;57787;48.216;12.396;2022-07-21T12:34:11;28.50;52.40
70366;DHT22;57787;48.216;12.396;2022-07-21T12:36:53;28.40;51.40
70366;DHT22;57787;48.216;12.396;2022-07-21T12:39:24;28.50;53.00
70366;DHT22;57787;48.216;12.396;2022-07-21T12:42:26;28.60;53.70
70366;DHT22;57787;48.216;12.396;2022-07-21T12:44:54;28.70;50.80
70366;DHT22;57787;48.216;12.396;2022-07-21T12:47:23;28.80;52.10
70366;DHT22;57787;48.216;12.396;2022-07-21T12:49:57;28.80;50.10
70366;DHT22;57787;48.216;12.396;2022-07-21T12:52:41;28.80;51.90
70366;DHT22;57787;48.216;12.396;2022-07-21T12:55:08;28.80;51.40
70366;DHT22;57787;48.216;12.396;2022-07-21T12:57:36;28.90;50.50
70366;DHT22;57787;48.216;12.396;2022-07-21T13:00:05;28.90;50.90
70366;DHT22;57787;48.216;12.396;2022-07-21T13:02:44;28.80;50.80
70366;DHT22;57787;48.216;12.396;2022-07-21T13:05:12;28.50;50.70
70366;DHT22;57787;48.216;12.396;2022-07-21T13:07:39;28.30;50.90
70366;DHT22;57787;48.216;12.396;2022-07-21T13:10:05;27.90;52.70
70366;DHT22;57787;48.216;12.396;2022-07-21T13:15:27;27.70;53.00
70366;DHT22;57787;48.216;12.396;2022-07-21T13:17:53;27.60;53.70
70366;DHT22;57787;48.216;12.396;2022-07-21T13:20:21;27.50;53.30
70366;DHT22;57787;48.216;12.396;2022-07-21T13:22:53;27.40;54.10
70366;DHT22;57787;48.216;12.396;2022-07-21T13:25:24;27.30;54.00
70366;DHT22;57787;48.216;12.396;2022-07-21T13:28:02;27.30;54.40
70366;DHT22;57787;48.216;12.396;2022-07-21T13:30:29;27.40;54.50
70366;DHT22;57787;48.216;12.396;2022-07-21T13:32:56;27.40;55.00
70366;DHT22;57787;48.216;12.396;2022-07-21T13:35:23;27.50;54.90
70366;DHT22;57787;48.216;12.396;2022-07-21T13:37:55;27.60;54.40
70366;DHT22;57787;48.216;12.396;2022-07-21T13:40:22;27.70;54.00
70366;DHT22;57787;48.216;12.396;2022-07-21T13:43:09;27.90;54.50
70366;DHT22;57787;48.216;12.396;2022-07-21T13:45:59;27.90;53.20
70366;DHT22;57787;48.216;12.396;2022-07-21T13:48:26;27.70;52.60
70366;DHT22;57787;48.216;12.396;2022-07-21T13:51:12;27.70;55.10
70366;DHT22;57787;48.216;12.396;2022-07-21T13:53:39;27.60;53.50
70366;DHT22;57787;48.216;12.396;2022-07-21T13:56:07;27.60;53.30
70366;DHT22;57787;48.216;12.396;2022-07-21T13:58:43;27.50;53.60
70366;DHT22;57787;48.216;12.396;2022-07-21T14:01:10;27.50;54.20
70366;DHT22;57787;48.216;12.396;2022-07-21T14:03:38;27.50;54.70
70366;DHT22;57787;48.216;12.396;2022-07-21T14:06:05;27.40;53.90
70366;DHT22;57787;48.216;12.396;2022-07-21T14:08:33;27.40;54.00
70366;DHT22;57787;48.216;12.396;2022-07-21T14:11:00;27.30;53.50
70366;DHT22;57787;48.216;12.396;2022-07-21T14:13:27;27.20;53.80
70366;DHT22;57787;48.216;12.396;2022-07-21T14:15:54;27.00;55.80
70366;DHT22;57787;48.216;12.396;2022-07-21T14:18:21;26.90;56.00
70366;DHT22;57787;48.216;12.396;2022-07-21T14:20:49;26.90;55.50
70366;DHT22;57787;48.216;12.396;2022-07-21T14:23:20;26.80;55.00
70366;DHT22;57787;48.216;12.396;2022-07-21T14:25:48;26.80;56.70
70366;DHT22;57787;48.216;12.396;2022-07-21T14:28:15;26.70;56.80
70366;DHT22;57787;48.216;12.396;2022-07-21T14:30:42;26.50;56.50
70366;DHT22;57787;48.216;12.396;2022-07-21T14:33:11;26.50;57.60
70366;DHT22;57787;48.216;12.396;2022-07-21T14:35:39;26.40;57.10
70366;DHT22;57787;48.216;12.396;2022-07-21T14:48:45;26.30;58.90
70366;DHT22;57787;48.216;12.396;2022-07-21T14:51:13;26.20;58.30
70366;DHT22;57787;48.216;12.396;2022-07-21T14:53:41;26.20;60.10
70366;DHT22;57787;48.216;12.396;2022-07-21T14:56:09;26.30;61.70
70366;DHT22;57787;48.216;12.396;2022-07-21T14:58:39;26.20;57.50
70366;DHT22;57787;48.216;12.396;2022-07-21T15:01:06;26.30;59.30
70366;DHT22;57787;48.216;12.396;2022-07-21T15:03:35;26.30;57.80
70366;DHT22;57787;48.216;12.396;2022-07-21T15:06:04;26.30;57.10
70366;DHT22;57787;48.216;12.396;2022-07-21T15:08:32;26.30;57.30
70366;DHT22;57787;48.216;12.396;2022-07-21T15:11:00;26.20;57.20
70366;DHT22;57787;48.216;12.396;2022-07-21T15:13:27;26.20;56.60
70366;DHT22;57787;48.216;12.396;2022-07-21T15:15:55;26.20;56.20
70366;DHT22;57787;48.216;12.396;2022-07-21T15:18:23;26.10;59.40
70366;DHT22;57787;48.216;12.396;2022-07-21T15:20:50;26.10;58.90
70366;DHT22;57787;48.216;12.396;2022-07-21T15:23:16;26.10;57.90
70366;DHT22;57787;48.216;12.396;2022-07-21T15:25:43;26.00;58.90
70366;DHT22;57787;48.216;12.396;2022-07-21T15:28:11;26.10;58.60
70366;DHT22;57787;48.216;12.396;2022-07-21T15:30:38;25.90;57.00
70366;DHT22;57787;48.216;12.396;2022-07-21T15:33:06;25.90;58.90
70366;DHT22;57787;48.216;12.396;2022-07-21T15:36:29;25.80;59.40
70366;DHT22;57787;48.216;12.396;2022-07-21T15:39:04;25.80;61.40
70366;DHT22;57787;48.216;12.396;2022-07-21T15:41:54;25.80;59.20
70366;DHT22;57787;48.216;12.396;2022-07-21T15:44:32;25.60;61.80
70366;DHT22;57787;48.216;12.396;2022-07-21T15:47:38;25.70;57.70
70366;DHT22;57787;48.216;12.396;2022-07-21T15:53:37;25.70;63.10
70366;DHT22;57787;48.216;12.396;2022-07-21T15:56:14;25.60;59.50
70366;DHT22;57787;48.216;12.396;2022-07-21T15:58:41;25.60;62.40
70366;DHT22;57787;48.216;12.396;2022-07-21T16:01:26;25.70;61.50
70366;DHT22;57787;48.216;12.396;2022-07-21T16:04:03;25.60;62.50
70366;DHT22;57787;48.216;12.396;2022-07-21T16:06:36;25.60;62.40
70366;DHT22;57787;48.216;12.396;2022-07-21T16:09:03;25.60;63.10
70366;DHT22;57787;48.216;12.396;2022-07-21T16:11:30;25.50;60.70
70366;DHT22;57787;48.216;12.396;2022-07-21T16:13:57;25.50;61.40
70366;DHT22;57787;48.216;12.396;2022-07-21T16:16:24;25.50;61.70
70366;DHT22;57787;48.216;12.396;2022-07-21T16:18:51;25.50;61.30
70366;DHT22;57787;48.216;12.396;2022-07-21T16:21:18;25.50;61.30
70366;DHT22;57787;48.216;12.396;2022-07-21T16:23:45;25.60;61.70